Pioche, Nevada Weather observations

Data are for observation ending at time listed.
 Day   Time    Ave.   Ave.  Ave.  Vector   Max.   Stn.    Total    Solar   Ave.  
  of    of     Air    Rel.  Wind   Wind    Wind   Baro.  Precip.   Rad.    Soil  
Year   Day     Temp.  Hum.  Speed  Dir.    Gust   Pres.                    Temp. 
2016   (PST)    F      %     mph   deg.    mph     mb.     in.     W/m2     F   
------------------------------------------------------------------------------
 206   20:50   83.7    21    5.7   139     10.2   822.0    0.00       0    87.7
 206   21:00   83.2    22    5.5   129     10.2   822.0    0.00       0    87.7
 206   21:10   82.7    22    5.4   137      9.3   822.1    0.00       0    87.6
 206   21:20   82.4    23    6.7   136     10.3   822.0    0.00       0    87.6
 206   21:30   81.9    23    7.2   132     15.0   822.0    0.00       0    87.5
 206   21:40   81.9    24    9.1   125     17.3   822.0    0.00       0    87.5
 206   21:50   81.8    25    8.5   127     17.2   822.1    0.00       0    87.4
 206   22:00   81.2    26    7.3   130     15.2   822.1    0.00       0    87.3
 206   22:10   80.3    27    5.2   140      8.6   822.1    0.00       0    87.3
 206   22:20   79.9    28    7.0   131     12.2   822.1    0.00       0    87.2
 206   22:30   79.2    29    6.3   136      9.6   822.1    0.00       0    87.2
 206   22:40   78.7    30    7.1   143     11.3   822.1    0.00       0    87.1
 206   22:50   78.4    30    7.6   143     11.8   822.1    0.00       0    87.0
 206   23:00   78.0    31    7.5   141     11.2   822.1    0.00       0    86.9
 206   23:10   77.8    31    7.0   144     10.2   822.1    0.00       0    86.9
 206   23:20   77.6    31    6.2   145     11.2   822.1    0.00       0    86.8
 206   23:30   77.5    31    5.8   148     12.1   822.1    0.00       0    86.7
 206   23:40   77.4    31    5.5   143      8.7   822.2    0.00       0    86.6
 206   23:50   77.5    31    6.1   137      9.3   822.2    0.00       0    86.5
 207    0:00   77.7    31    5.2   141     13.2   822.2    0.00       0    86.5
 207    0:10   77.3    32    4.3   143      8.0   822.2    0.00       0    86.4
 207    0:20   77.7    32    6.6   139     12.6   822.2    0.00       0    86.3
 207    0:30   77.6    32    6.1   136     11.2   822.2    0.00       0    86.2
 207    0:40   77.0    32    3.7   136      7.7   822.3    0.00       0    86.1
 207    0:50   76.7    32    4.5   132      8.6   822.3    0.00       0    86.1
 207    1:00   76.3    33    5.3   132      9.3   822.4    0.00       0    86.0
 207    1:10   75.8    33    5.5   143      9.6   822.4    0.00       0    85.9
 207    1:20   75.3    34    5.5   137      7.5   822.4    0.00       0    85.9
 207    1:30   75.0    34    5.1   140      8.2   822.5    0.00       0    85.8
 207    1:40   74.6    34    4.1   140      7.5   822.5    0.00       0    85.7
 207    1:50   74.5    34    4.8   139      8.0   822.6    0.00       0    85.7
 207    2:00   74.0    35    5.1   143      6.8   822.7    0.00       0    85.6
 207    2:10   73.7    36    5.3   147      7.3   822.6    0.00       0    85.5
 207    2:20   73.6    36    5.5   148      8.0   822.6    0.00       0    85.4
 207    2:30   73.3    38    4.9   149      6.9   822.7    0.00       0    85.4
 207    2:40   73.0    40    4.6   152      6.9   822.7    0.00       0    85.3
 207    2:50   73.1    40    4.1   155      6.9   822.6    0.00       0    85.2
 207    3:00   73.0    39    4.0   149      5.9   822.7    0.00       0    85.2
 207    3:10   72.5    38    3.5   145      5.1   822.7    0.00       0    85.1
 207    3:20   72.2    40    2.6   148      5.2   822.8    0.00       0    85.0
 207    3:30   69.3    48    1.3   314      3.7   822.8    0.00       0    85.0
 207    3:40   66.8    55    0.4   152      1.5   822.9    0.00       0    84.9
 207    3:50   66.7    51    2.1   119      4.2   822.9    0.00       0    84.8
 207    4:00   70.2    42    3.7   112      5.0   822.8    0.00       0    84.7
 207    4:10   69.0    44    2.1   302      5.0   823.0    0.00       0    84.6
 207    4:20   66.6    48    1.2   207      2.7   823.1    0.00       0    84.6
 207    4:30   66.0    50    1.3   185      2.3   823.2    0.00       0    84.5
 207    4:40   66.2    49    1.9   155      3.1   823.2    0.00       4    84.5
 207    4:50   65.9    50    1.6   174      3.0   823.3    0.00       8    84.4
 207    5:00   65.3    51    2.5   159      4.0   823.3    0.00      12    84.3
 207    5:10   66.2    49    3.9   154      5.0   823.3    0.00      17    84.2
 207    5:20   67.0    49    2.1   130      4.2   823.4    0.00      23    84.1
 207    5:30   68.1    48    0.5   113      1.5   823.4    0.00      30    84.0
 207    5:40   68.8    48    1.4   146      2.5   823.4    0.00      35    83.9
 207    5:50   69.8    45    0.5   336      2.4   823.5    0.00      41    83.9
 207    6:00   70.2    43    0.7    66      2.8   823.6    0.00      53    83.8
 207    6:10   70.4    42    0.7    30      2.0   823.7    0.00     223    83.7
 207    6:20   71.6    41    2.6   326      3.9   823.8    0.00     263    83.6
 207    6:30   74.2    37    0.2   331      1.8   823.8    0.00     300    83.5
 207    6:40   77.3    34    0.1    20      1.2   823.9    0.00     339    83.5
 207    6:50   77.7    33    0.8    56      4.4   824.0    0.00     377    83.5
 207    7:00   76.1    35    2.4    72      4.7   824.1    0.00     415    83.4
 207    7:10   76.7    34    3.4    75      5.8   824.1    0.00     449    83.3
 207    7:20   78.2    33    2.7    80      4.7   824.1    0.00     480    83.2
 207    7:30   79.6    32    5.4   100     13.5   824.2    0.00     513    83.1
 207    7:40   79.8    31    7.2   118     14.2   824.3    0.00     545    83.0
 207    7:50   80.3    31    7.7   114     13.2   824.3    0.00     577    83.0
 207    8:00   80.9    30    6.1   137     12.0   824.3    0.00     612    82.9
 207    8:10   80.8    29    8.2   144     13.7   824.4    0.00     644    82.9
 207    8:20   81.4    29    7.0   155     11.7   824.3    0.00     678    82.9
 207    8:30   81.7    27    9.1   145     14.1   824.3    0.00     708    82.8
 207    8:40   82.4    26    7.7   136     13.2   824.2    0.00     736    82.8
 207    8:50   82.9    26    5.8   149     11.9   824.2    0.00     765    82.7
 207    9:00   83.6    25    6.7   139     12.6   824.2    0.00     792    82.7
 207    9:10   83.9    24    6.9   139     14.0   824.2    0.00     815    82.7
 207    9:20   84.8    22    7.7   129     13.4   824.2    0.00     844    82.6
 207    9:30   85.5    22    6.0   144     13.1   824.1    0.00     865    82.6
 207    9:40   86.0    22    5.8   136     14.4   824.1    0.00     886    82.6
 207    9:50   86.6    21    6.0   127     13.7   824.1    0.00     904    82.6
 207   10:00   88.0    19    7.1   118     14.3   824.1    0.00     924    82.6
 207   10:10   87.6    20    6.7   120     17.9   824.1    0.00     944    82.6
 207   10:20   88.0    20    6.5   127     15.6   824.0    0.00     959    82.6
 207   10:30   88.8    19    8.0   117     14.4   824.0    0.00     968    82.6
 207   10:40   89.4    18    5.7   116     15.2   823.9    0.00     979    82.6
 207   10:50   89.6    19    2.3   171      9.7   823.8    0.00     979    82.6
 207   11:00   91.1    19    0.4   264      4.2   823.6    0.00     997    82.7
 207   11:10   91.2    17    3.9   114     13.5   823.6    0.00     977    82.8
 207   11:20   90.6    18    3.1   178     10.4   823.4    0.00     904    82.8
 207   11:30   91.5    18    1.4   207      7.5   823.3    0.00    1013    82.8
 207   11:40   91.9    16    5.5   110     15.0   823.2    0.00    1025    82.9
 207   11:50   91.5    16    7.6   141     17.8   823.2    0.00     948    83.0
 207   12:00   91.2    17    1.9   166     11.0   823.1    0.00    1114    83.1
 207   12:10   92.1    16    7.1   116     17.7   823.0    0.00     849    83.2
 207   12:20   91.7    16   10.4   121     18.6   822.8    0.00     882    83.4
 207   12:30   91.9    16    3.4   157     12.1   822.8    0.00     679    83.5
 207   12:40   91.9    15   10.3   114     20.5   822.6    0.00    1027    83.6
 207   12:50   92.5    15    5.6   142     14.9   822.7    0.00    1006    83.8
 207   13:00   92.3    15    9.7   120     21.0   822.6    0.00     967    83.9
 207   13:10   92.2    15    8.2   108     18.6   822.4    0.00     966    84.1
 207   13:20   92.5    14    7.5   136     21.4   822.4    0.00     936    84.2
 207   13:30   92.1    14    8.4   133     18.7   822.3    0.00     908    84.3
 207   13:40   92.7    15    4.9   131     14.4   822.2    0.00     910    84.5
 207   13:50   92.5    15    6.7   163     17.3   822.2    0.00     898    84.7
 207   14:00   92.5    14    9.0   138     19.4   822.2    0.00     892    84.8
 207   14:10   92.4    14    8.0   157     22.1   822.0    0.00     861    85.0
 207   14:20   92.5    13    5.3   214     15.4   822.0    0.00     861    85.1
 207   14:30   93.4    12    2.7   228      8.6   822.0    0.00     833    85.3
 207   14:40   93.7    11    4.1   168     15.3   821.9    0.00     792    85.5
 207   14:50   92.9    10    8.8   127     18.8   821.8    0.00     753    85.6
 207   15:00   93.3    11    4.0   196     12.0   821.8    0.00     734    85.8
 207   15:10   93.6    12    3.4   204     12.0   821.7    0.00     706    86.0
 207   15:20   92.7    11    6.6   162     16.8   821.7    0.00     668    86.1
 207   15:30   92.7    12    4.5   252     12.3   821.6    0.00     636    86.3
 207   15:40   92.4    12    4.1   209     15.4   821.5    0.00     498    86.5
 207   15:50   91.9    12    4.6   266     11.8   821.3    0.00     170    86.6
 207   16:00   92.2    12    4.0   221     13.2   821.3    0.00      82    86.7
 207   16:10   91.9    12    3.1   217     10.7   821.2    0.00      74    86.9
 207   16:20   92.0    11    3.7   221     12.8   821.1    0.00      88    87.0
 207   16:30   91.7    11    7.5   177     20.5   821.1    0.00      81    87.2
 207   16:40   91.5    11    5.1   275     11.8   821.1    0.00     172    87.3
 207   16:50   91.5    11    4.5   203     10.1   821.1    0.00     211    87.4
 207   17:00   91.6    11    3.9   203     12.4   821.0    0.00     246    87.6
 207   17:10   92.3    11    2.2   260      9.4   821.0    0.00     289    87.7
 207   17:20   92.3    11    3.5   194     13.5   821.1    0.00     253    87.8
 207   17:30   91.3    11    3.3   228     10.9   821.1    0.00     217    87.9
 207   17:40   91.2    11    4.1   189     10.1   821.2    0.00     183    87.9
 207   17:50   90.4    12    3.3   208     11.1   821.2    0.00     153    88.0
 207   18:00   90.0    12    3.5   190      7.3   821.2    0.00     122    88.0
 207   18:10   89.7    12    4.3   175     10.3   821.3    0.00      94    88.0
 207   18:20   89.1    12    2.3   227      8.5   821.3    0.00      63    88.0
 207   18:30   88.8    12    2.8   153      6.9   821.4    0.00      36    88.0
 207   18:40   88.4    12    4.5   162      9.6   821.5    0.00      14    88.0
 207   18:50   87.5    13    3.4   182      6.9   821.5    0.00       9    88.1
 207   19:00   86.7    12    4.7   180      8.6   821.5    0.00       4    88.1
 207   19:10   86.8    12    4.4   166      8.4   821.6    0.00       1    88.1
 207   19:20   86.2    11    3.6   181      7.5   821.6    0.00       0    88.1
 207   19:30   86.3    11    4.4   174      9.4   821.7    0.00       0    88.1
 207   19:40   86.1    11    4.5   177     11.4   821.8    0.00       0    88.1
 207   19:50   85.8    11    4.7   176     11.0   821.9    0.00       0    88.1
 207   20:00   85.7    11    4.9   170     10.9   822.0    0.00       0    88.1
 207   20:10   85.3    11    5.4   153     10.9   822.1    0.00       0    88.0
 207   20:20   84.8    15    6.3   175     14.6   822.2    0.00       0    88.0
 207   20:30   84.7    18    7.1   156     16.0   822.3    0.00       0    88.0
 207   20:40   84.1    18    7.1   147     11.8   822.3    0.00       0    87.9

Return to Pioche, Nevada graphs page.


Western Regional Climate Center,wrcc@dri.edu